createdAt,value
2022-10-22T00:02:20.039Z,15.20
2022-10-22T00:05:06.123Z,15.60
2022-10-22T00:07:51.351Z,15.40
2022-10-22T00:10:38.741Z,15.40
2022-10-22T00:13:24.248Z,15.50
2022-10-22T00:16:10.340Z,15.90
2022-10-22T00:18:56.039Z,15.70
2022-10-22T00:21:41.479Z,15.60
2022-10-22T00:24:27.134Z,15.80
2022-10-22T00:27:13.618Z,15.80
2022-10-22T00:29:59.185Z,15.60
2022-10-22T00:32:44.518Z,15.70
2022-10-22T00:35:30.180Z,15.60
2022-10-22T00:38:15.887Z,15.60
2022-10-22T00:44:06.862Z,15.60
2022-10-22T00:46:52.359Z,15.60
2022-10-22T00:49:37.848Z,15.70
2022-10-22T00:52:23.371Z,15.50
2022-10-22T00:55:09.935Z,15.40
2022-10-22T00:57:57.063Z,15.30
2022-10-22T01:00:42.981Z,15.40
2022-10-22T01:03:28.888Z,15.20
2022-10-22T01:06:29.302Z,15.00
2022-10-22T01:09:38.286Z,15.50
2022-10-22T01:12:45.474Z,14.90
2022-10-22T01:16:04.215Z,15.10
2022-10-22T01:19:04.756Z,15.10
2022-10-22T01:21:58.289Z,14.80
2022-10-22T01:24:49.665Z,14.90
2022-10-22T01:28:11.935Z,15.50
2022-10-22T01:30:59.676Z,15.00
2022-10-22T01:33:47.891Z,15.70
2022-10-22T01:36:35.590Z,15.10
2022-10-22T01:39:23.337Z,15.10
2022-10-22T01:42:08.469Z,14.90
2022-10-22T01:44:54.307Z,14.90
2022-10-22T01:48:15.159Z,15.00
2022-10-22T01:51:18.656Z,15.10
2022-10-22T01:54:16.025Z,15.10
2022-10-22T01:57:30.882Z,15.20
2022-10-22T02:00:18.538Z,14.90
2022-10-22T02:03:05.906Z,15.10
2022-10-22T02:05:56.828Z,14.80
2022-10-22T02:08:43.398Z,14.80
2022-10-22T02:11:29.106Z,15.00
2022-10-22T02:14:17.786Z,15.10
2022-10-22T02:17:04.160Z,15.10
2022-10-22T02:20:10.121Z,14.80
2022-10-22T02:22:56.827Z,15.00
2022-10-22T02:25:45.793Z,14.90
2022-10-22T02:28:44.489Z,14.80
2022-10-22T02:31:33.485Z,15.30
2022-10-22T02:34:23.296Z,14.90
2022-10-22T02:37:09.943Z,15.70
2022-10-22T02:39:56.455Z,15.50
2022-10-22T02:42:43.228Z,14.90
2022-10-22T02:45:28.817Z,14.90
2022-10-22T02:48:14.053Z,14.70
2022-10-22T02:50:59.879Z,14.70
2022-10-22T02:53:45.433Z,14.70
2022-10-22T02:56:30.960Z,14.80
2022-10-22T02:59:16.367Z,14.80
2022-10-22T03:02:01.666Z,15.10
2022-10-22T03:04:47.465Z,14.80
2022-10-22T03:07:33.393Z,15.00
2022-10-22T03:10:18.650Z,15.30
2022-10-22T03:13:04.580Z,14.70
2022-10-22T03:15:50.584Z,14.80
2022-10-22T03:18:36.171Z,14.70
2022-10-22T03:21:35.043Z,14.70
2022-10-22T03:24:48.979Z,14.60
2022-10-22T03:27:36.592Z,14.60
2022-10-22T03:30:22.285Z,15.60
2022-10-22T03:33:07.970Z,14.60
2022-10-22T03:35:53.452Z,14.70
2022-10-22T03:38:40.051Z,14.80
2022-10-22T03:41:26.053Z,14.70
2022-10-22T03:44:12.044Z,14.80
2022-10-22T03:47:00.216Z,15.20
2022-10-22T03:49:48.217Z,14.90
2022-10-22T03:52:38.764Z,15.00
2022-10-22T03:55:25.001Z,15.00
2022-10-22T03:58:10.337Z,14.90
2022-10-22T04:00:56.098Z,15.20
2022-10-22T04:03:41.768Z,14.80
2022-10-22T04:06:29.302Z,14.70
2022-10-22T04:09:14.629Z,14.70
2022-10-22T04:12:00.399Z,15.10
2022-10-22T04:14:45.608Z,16.10
2022-10-22T04:17:36.225Z,14.80
2022-10-22T04:20:21.708Z,14.80
2022-10-22T04:23:07.109Z,14.70
2022-10-22T04:25:59.222Z,14.80
2022-10-22T04:28:45.238Z,15.20
2022-10-22T04:31:31.077Z,14.70
2022-10-22T04:34:16.474Z,14.70
2022-10-22T04:37:01.977Z,14.70
2022-10-22T04:39:47.320Z,14.80
2022-10-22T04:42:32.908Z,15.20
2022-10-22T04:45:18.444Z,14.90
2022-10-22T04:48:04.147Z,15.00
2022-10-22T04:50:49.496Z,15.00
2022-10-22T04:53:35.807Z,14.80
2022-10-22T04:56:25.768Z,16.10
2022-10-22T04:59:12.830Z,15.20
2022-10-22T05:01:58.429Z,15.00
2022-10-22T05:04:44.598Z,15.00
2022-10-22T05:07:29.987Z,14.90
2022-10-22T05:10:15.643Z,15.00
2022-10-22T05:13:01.009Z,14.90
2022-10-22T05:15:46.609Z,14.70
2022-10-22T05:18:37.674Z,15.10
2022-10-22T05:21:23.291Z,15.50
2022-10-22T05:24:08.742Z,16.10
2022-10-22T05:26:56.164Z,15.00
2022-10-22T05:29:41.415Z,15.10
2022-10-22T05:32:27.103Z,14.80
2022-10-22T05:35:14.045Z,14.80
2022-10-22T05:37:59.367Z,14.60
2022-10-22T05:40:45.633Z,14.70
2022-10-22T05:43:32.451Z,14.60
2022-10-22T05:46:22.762Z,14.60
2022-10-22T05:49:12.146Z,14.50
2022-10-22T05:51:57.859Z,14.40
2022-10-22T05:54:43.430Z,14.30
2022-10-22T05:57:28.891Z,14.30
2022-10-22T06:00:16.522Z,14.20
2022-10-22T06:03:02.299Z,14.30
2022-10-22T06:05:47.658Z,14.30
2022-10-22T06:08:34.241Z,14.10
2022-10-22T06:11:21.175Z,14.30
2022-10-22T06:14:06.650Z,14.40
2022-10-22T06:16:52.476Z,14.50
2022-10-22T06:19:38.156Z,14.60
2022-10-22T06:22:23.805Z,14.60
2022-10-22T06:25:09.577Z,16.10
2022-10-22T06:27:55.318Z,14.70
2022-10-22T06:30:43.034Z,14.50
2022-10-22T06:33:34.796Z,14.70
2022-10-22T06:36:22.878Z,14.60
2022-10-22T06:39:15.498Z,14.60
2022-10-22T06:42:01.099Z,14.80
2022-10-22T06:44:46.649Z,14.90
2022-10-22T06:47:33.440Z,14.90
2022-10-22T06:50:19.187Z,14.90
2022-10-22T06:53:04.706Z,15.20
2022-10-22T06:55:50.460Z,16.30
2022-10-22T06:58:37.535Z,14.90
2022-10-22T07:01:32.660Z,15.10
2022-10-22T07:04:17.900Z,15.10
2022-10-22T07:07:03.474Z,15.20
2022-10-22T07:09:50.618Z,15.20
2022-10-22T07:12:37.396Z,15.50
2022-10-22T07:15:23.103Z,15.20
2022-10-22T07:18:08.763Z,15.10
2022-10-22T07:20:54.288Z,15.10
2022-10-22T07:23:40.090Z,15.10
2022-10-22T07:26:30.615Z,15.30
2022-10-22T07:29:16.957Z,15.20
2022-10-22T07:32:02.419Z,15.10
2022-10-22T07:34:47.791Z,15.20
2022-10-22T07:37:33.401Z,15.30
2022-10-22T07:40:19.133Z,15.60
2022-10-22T07:43:05.186Z,15.90
2022-10-22T07:45:50.696Z,16.10
2022-10-22T07:48:37.142Z,16.10
2022-10-22T07:51:22.921Z,16.10
2022-10-22T07:54:08.422Z,16.20
2022-10-22T07:56:55.394Z,16.40
2022-10-22T07:59:40.924Z,16.40
2022-10-22T08:02:26.763Z,16.30
2022-10-22T08:05:13.550Z,16.10
2022-10-22T08:07:59.798Z,16.20
2022-10-22T08:10:47.254Z,16.30
2022-10-22T08:13:32.933Z,16.60
2022-10-22T08:16:18.468Z,16.50
2022-10-22T08:19:03.951Z,16.40
2022-10-22T08:21:49.428Z,16.20
2022-10-22T08:24:35.055Z,16.10
2022-10-22T08:27:20.892Z,16.20
2022-10-22T08:30:07.245Z,16.00
2022-10-22T08:32:54.058Z,16.10
2022-10-22T08:35:39.780Z,16.20
2022-10-22T08:38:25.465Z,16.50
2022-10-22T08:41:15.962Z,16.50
2022-10-22T08:44:39.766Z,16.50
2022-10-22T08:47:33.790Z,16.50
2022-10-22T08:50:43.735Z,17.00
2022-10-22T08:53:41.774Z,16.90
2022-10-22T08:56:27.171Z,17.60
2022-10-22T08:59:26.462Z,17.00
2022-10-22T09:02:36.074Z,17.20
2022-10-22T09:05:49.358Z,17.40
2022-10-22T09:08:36.379Z,17.70
2022-10-22T09:11:32.914Z,17.80
2022-10-22T09:14:22.192Z,17.80
2022-10-22T09:17:21.541Z,17.90
2022-10-22T09:20:28.595Z,18.30
2022-10-22T09:23:31.929Z,18.10
2022-10-22T09:26:17.890Z,18.30
2022-10-22T09:29:04.488Z,18.60
2022-10-22T09:31:50.099Z,18.60
2022-10-22T09:34:35.826Z,18.60
2022-10-22T09:37:26.216Z,18.50
2022-10-22T09:40:15.134Z,18.80
2022-10-22T09:43:00.829Z,19.10
2022-10-22T09:45:47.442Z,19.00
2022-10-22T09:48:44.888Z,18.90
2022-10-22T09:51:48.634Z,18.90
2022-10-22T09:54:34.198Z,19.30
2022-10-22T09:57:24.899Z,20.30
2022-10-22T10:00:12.722Z,20.30
2022-10-22T10:02:59.830Z,20.10
2022-10-22T10:05:49.427Z,20.60
2022-10-22T10:08:35.003Z,20.30
2022-10-22T10:11:32.541Z,19.60
2022-10-22T10:14:28.503Z,19.60
2022-10-22T10:17:50.864Z,19.60
2022-10-22T10:20:47.186Z,20.10
2022-10-22T10:24:08.867Z,19.90
2022-10-22T10:27:05.317Z,19.50
2022-10-22T10:30:15.070Z,19.60
2022-10-22T10:33:15.859Z,20.40
2022-10-22T10:36:24.321Z,20.70
2022-10-22T10:39:16.253Z,20.70
2022-10-22T10:42:28.010Z,20.70
2022-10-22T10:45:31.781Z,20.50
2022-10-22T10:48:29.230Z,19.80
2022-10-22T10:51:36.632Z,19.20
2022-10-22T10:54:44.636Z,20.00
2022-10-22T10:57:51.249Z,20.40
2022-10-22T11:00:46.393Z,21.40
2022-10-22T11:03:51.637Z,21.90
2022-10-22T11:06:39.358Z,21.70
2022-10-22T11:09:36.969Z,21.80
2022-10-22T11:12:33.403Z,21.80
2022-10-22T11:15:33.295Z,21.50
2022-10-22T11:18:49.638Z,21.80
2022-10-22T11:21:47.208Z,21.90
2022-10-22T11:24:50.707Z,22.00
2022-10-22T11:27:39.245Z,23.40
2022-10-22T11:30:28.687Z,23.60
2022-10-22T11:33:21.399Z,23.80
2022-10-22T11:36:11.550Z,23.00
2022-10-22T11:38:56.747Z,23.30
2022-10-22T11:41:45.598Z,23.50
2022-10-22T11:44:32.560Z,24.00
2022-10-22T11:47:25.835Z,24.10
2022-10-22T11:50:43.489Z,24.40
2022-10-22T11:53:41.562Z,24.50
2022-10-22T11:56:36.773Z,24.10
2022-10-22T11:59:40.935Z,24.10
2022-10-22T12:02:29.396Z,24.20
2022-10-22T12:05:23.688Z,24.40
2022-10-22T12:08:25.079Z,24.80
2022-10-22T12:11:10.260Z,24.70
2022-10-22T12:14:01.461Z,25.00
2022-10-22T12:17:03.874Z,25.50
2022-10-22T12:19:56.432Z,25.30
2022-10-22T12:22:44.239Z,25.30
2022-10-22T12:25:35.843Z,25.50
2022-10-22T12:28:21.729Z,25.80
2022-10-22T12:31:18.094Z,25.70
2022-10-22T12:34:03.899Z,25.80
2022-10-22T12:36:51.463Z,26.00
2022-10-22T12:39:36.742Z,25.40
2022-10-22T12:42:23.835Z,24.50
2022-10-22T12:45:09.908Z,24.40
2022-10-22T12:48:01.687Z,24.50
2022-10-22T12:50:53.117Z,24.50
2022-10-22T12:54:02.593Z,23.70
2022-10-22T12:56:48.264Z,24.20
2022-10-22T12:59:36.675Z,24.80
2022-10-22T13:02:25.254Z,25.00
2022-10-22T13:05:20.026Z,24.20
2022-10-22T13:08:16.908Z,24.40
2022-10-22T13:11:09.150Z,24.60
2022-10-22T13:14:05.622Z,25.10
2022-10-22T13:17:17.020Z,25.40
2022-10-22T13:20:07.155Z,25.90
2022-10-22T13:23:04.507Z,25.50
2022-10-22T13:26:14.774Z,25.00
2022-10-22T13:29:01.509Z,25.00
2022-10-22T13:31:53.479Z,25.70
2022-10-22T13:34:40.147Z,26.10
2022-10-22T13:37:26.171Z,26.30
2022-10-22T13:40:13.479Z,26.60
2022-10-22T13:42:58.887Z,26.50
2022-10-22T13:45:45.809Z,27.00
2022-10-22T13:48:31.501Z,27.20
2022-10-22T13:51:20.935Z,27.20
2022-10-22T13:54:21.410Z,26.90
2022-10-22T13:57:09.531Z,26.90
2022-10-22T13:59:55.219Z,26.70
2022-10-22T14:02:41.814Z,26.90
2022-10-22T14:05:27.687Z,26.90
2022-10-22T14:08:15.900Z,26.90
2022-10-22T14:11:01.575Z,27.40
2022-10-22T14:13:47.125Z,27.40
2022-10-22T14:16:34.379Z,27.20
2022-10-22T14:19:19.813Z,27.20
2022-10-22T14:22:05.407Z,27.20
2022-10-22T14:24:51.991Z,27.40
2022-10-22T14:27:38.504Z,26.80
2022-10-22T14:30:26.021Z,26.70
2022-10-22T14:33:27.200Z,26.60
2022-10-22T14:36:18.513Z,26.40
2022-10-22T14:39:04.285Z,26.20
2022-10-22T14:41:49.649Z,25.90
2022-10-22T14:44:35.032Z,25.60
2022-10-22T14:47:21.394Z,25.10
2022-10-22T14:50:08.090Z,24.90
2022-10-22T14:52:53.462Z,24.60
2022-10-22T14:55:39.145Z,24.80
2022-10-22T14:58:24.541Z,24.80
2022-10-22T15:01:09.892Z,24.50
2022-10-22T15:03:55.328Z,24.20
2022-10-22T15:06:40.862Z,24.10
2022-10-22T15:09:26.698Z,23.90
2022-10-22T15:12:11.949Z,23.70
2022-10-22T15:14:57.683Z,23.30
2022-10-22T15:17:43.579Z,23.20
2022-10-22T15:20:29.203Z,23.00
2022-10-22T15:23:14.477Z,22.90
2022-10-22T15:26:00.010Z,22.60
2022-10-22T15:28:46.829Z,22.50
2022-10-22T15:31:49.277Z,22.30
2022-10-22T15:34:36.097Z,22.00
2022-10-22T15:37:22.096Z,21.80
2022-10-22T15:40:08.691Z,21.60
2022-10-22T15:42:53.926Z,21.40
2022-10-22T15:45:40.493Z,21.20
2022-10-22T15:48:25.799Z,21.00
2022-10-22T15:51:16.677Z,20.90
2022-10-22T15:54:03.538Z,20.70
2022-10-22T15:56:52.349Z,20.70
2022-10-22T15:59:37.869Z,20.50
2022-10-22T16:02:23.332Z,20.40
2022-10-22T16:05:09.451Z,19.90
2022-10-22T16:07:56.512Z,19.80
2022-10-22T16:10:46.426Z,19.60
2022-10-22T16:13:32.004Z,20.00
2022-10-22T16:16:17.429Z,19.20
2022-10-22T16:19:03.671Z,19.20
2022-10-22T16:21:51.391Z,19.10
2022-10-22T16:24:40.364Z,19.00
2022-10-22T16:27:29.528Z,19.00
2022-10-22T16:30:16.303Z,19.00
2022-10-22T16:33:03.454Z,18.80
2022-10-22T16:35:49.158Z,18.80
2022-10-22T16:38:35.117Z,18.70
2022-10-22T16:41:23.375Z,19.00
2022-10-22T16:44:10.467Z,18.50
2022-10-22T16:46:55.884Z,18.40
2022-10-22T16:49:41.356Z,18.20
2022-10-22T16:52:27.037Z,18.20
2022-10-22T16:55:12.380Z,18.00
2022-10-22T16:57:57.621Z,17.90
2022-10-22T17:00:43.125Z,17.90
2022-10-22T17:03:28.804Z,17.80
2022-10-22T17:06:14.852Z,17.60
2022-10-22T17:09:00.243Z,17.50
2022-10-22T17:11:46.403Z,17.40
2022-10-22T17:14:32.398Z,17.30
2022-10-22T17:17:17.949Z,17.30
2022-10-22T17:20:04.027Z,17.10
2022-10-22T17:22:49.916Z,17.20
2022-10-22T17:25:45.738Z,17.10
2022-10-22T17:28:35.343Z,17.10
2022-10-22T17:31:24.870Z,16.90
2022-10-22T17:34:16.511Z,16.80
2022-10-22T17:37:02.169Z,16.60
2022-10-22T17:39:50.483Z,16.50
2022-10-22T17:42:36.418Z,16.60
2022-10-22T17:45:22.415Z,17.50
2022-10-22T17:48:08.135Z,16.60
2022-10-22T17:50:55.755Z,16.60
2022-10-22T17:53:47.419Z,16.70
2022-10-22T17:56:32.770Z,16.50
2022-10-22T17:59:19.495Z,16.60
2022-10-22T18:02:05.480Z,16.50
2022-10-22T18:04:52.583Z,16.50
2022-10-22T18:07:38.458Z,16.40
2022-10-22T18:10:27.213Z,16.40
2022-10-22T18:13:13.933Z,16.40
2022-10-22T18:16:00.047Z,16.40
2022-10-22T18:18:50.372Z,16.40
2022-10-22T18:21:37.151Z,16.40
2022-10-22T18:24:22.909Z,16.30
2022-10-22T18:27:08.548Z,16.40
2022-10-22T18:29:54.541Z,16.70
2022-10-22T18:32:40.177Z,16.40
2022-10-22T18:35:25.748Z,16.20
2022-10-22T18:38:11.086Z,16.20
2022-10-22T18:40:56.567Z,16.10
2022-10-22T18:43:42.395Z,16.50
2022-10-22T18:46:29.307Z,16.20
2022-10-22T18:49:18.776Z,16.10
2022-10-22T18:52:04.851Z,16.10
2022-10-22T18:54:50.687Z,15.90
2022-10-22T18:57:36.262Z,15.60
2022-10-22T19:00:22.162Z,15.40
2022-10-22T19:03:07.961Z,15.40
2022-10-22T19:05:54.300Z,15.20
2022-10-22T19:08:42.300Z,15.10
2022-10-22T19:11:28.199Z,15.10
2022-10-22T19:14:15.100Z,15.10
2022-10-22T19:17:01.061Z,16.00
2022-10-22T19:19:46.564Z,15.20
2022-10-22T19:22:32.450Z,15.20
2022-10-22T19:25:18.103Z,15.20
2022-10-22T19:28:03.523Z,15.30
2022-10-22T19:30:49.448Z,15.30
2022-10-22T19:33:36.366Z,15.20
2022-10-22T19:36:30.311Z,15.30
2022-10-22T19:39:17.024Z,15.30
2022-10-22T19:42:04.316Z,15.30
2022-10-22T19:44:50.026Z,15.30
2022-10-22T19:47:36.874Z,15.20
2022-10-22T19:50:22.942Z,15.30
2022-10-22T19:53:08.835Z,15.30
2022-10-22T19:55:54.590Z,15.20
2022-10-22T19:58:39.910Z,15.20
2022-10-22T20:01:25.891Z,15.20
2022-10-22T20:04:15.492Z,15.20
2022-10-22T20:07:01.172Z,15.20
2022-10-22T20:09:46.568Z,14.90
2022-10-22T20:12:32.591Z,15.00
2022-10-22T20:15:18.750Z,15.00
2022-10-22T20:18:04.448Z,14.90
2022-10-22T20:20:50.382Z,14.90
2022-10-22T20:23:35.715Z,15.40
2022-10-22T20:26:24.013Z,14.80
2022-10-22T20:29:12.059Z,14.80
2022-10-22T20:31:57.727Z,14.80
2022-10-22T20:34:43.072Z,14.60
2022-10-22T20:37:28.712Z,15.10
2022-10-22T20:40:14.760Z,14.60
2022-10-22T20:43:01.351Z,14.60
2022-10-22T20:45:46.913Z,14.60
2022-10-22T20:48:32.661Z,14.60
2022-10-22T20:51:18.565Z,14.60
2022-10-22T20:54:05.358Z,14.50
2022-10-22T20:56:50.938Z,14.50
2022-10-22T20:59:36.820Z,14.90
2022-10-22T21:02:22.680Z,14.50
2022-10-22T21:05:08.740Z,14.40
2022-10-22T21:07:54.435Z,14.30
2022-10-22T21:10:39.875Z,14.40
2022-10-22T21:13:25.632Z,14.30
2022-10-22T21:16:12.714Z,14.20
2022-10-22T21:18:58.199Z,14.40
2022-10-22T21:21:43.938Z,14.90
2022-10-22T21:24:30.334Z,14.20
2022-10-22T21:27:16.547Z,14.10
2022-10-22T21:30:02.253Z,14.20
2022-10-22T21:32:47.542Z,14.10
2022-10-22T21:35:33.466Z,14.10
2022-10-22T21:38:19.437Z,14.10
2022-10-22T21:41:11.317Z,14.20
2022-10-22T21:43:56.678Z,14.10
2022-10-22T21:46:42.112Z,14.10
2022-10-22T21:49:27.724Z,14.00
2022-10-22T21:52:13.577Z,14.80
2022-10-22T21:54:59.127Z,14.20
2022-10-22T21:57:44.923Z,15.10
2022-10-22T22:00:30.365Z,14.00
2022-10-22T22:03:15.949Z,14.00
2022-10-22T22:06:04.063Z,14.90
2022-10-22T22:08:51.840Z,14.00
2022-10-22T22:11:37.469Z,14.30
2022-10-22T22:14:22.796Z,13.90
2022-10-22T22:17:10.576Z,13.70
2022-10-22T22:19:56.940Z,13.50
2022-10-22T22:22:43.035Z,13.60
2022-10-22T22:25:29.896Z,13.60
2022-10-22T22:28:15.463Z,13.90
2022-10-22T22:31:01.417Z,13.50
2022-10-22T22:33:46.960Z,13.60
2022-10-22T22:36:38.129Z,13.60
2022-10-22T22:39:24.075Z,13.60
2022-10-22T22:42:09.332Z,13.70
2022-10-22T22:44:54.884Z,13.50
2022-10-22T22:47:40.659Z,13.50
2022-10-22T22:50:26.585Z,14.40
2022-10-22T22:53:12.007Z,13.40
2022-10-22T22:56:07.822Z,13.40
2022-10-22T22:58:53.489Z,13.50
2022-10-22T23:01:39.722Z,13.40
2022-10-22T23:04:25.367Z,13.40
2022-10-22T23:07:11.549Z,13.30
2022-10-22T23:09:56.975Z,13.30
2022-10-22T23:12:43.002Z,13.80
2022-10-22T23:15:28.553Z,13.60
2022-10-22T23:18:13.996Z,13.40
2022-10-22T23:21:02.836Z,13.20
2022-10-22T23:23:50.492Z,13.30
2022-10-22T23:26:42.958Z,13.20
2022-10-22T23:29:32.298Z,13.30
2022-10-22T23:32:17.730Z,13.80
2022-10-22T23:35:03.235Z,13.30
2022-10-22T23:37:48.638Z,13.30
2022-10-22T23:40:34.681Z,13.20
2022-10-22T23:43:21.162Z,13.20
2022-10-22T23:46:09.701Z,13.20
2022-10-22T23:48:55.454Z,13.30
2022-10-22T23:51:41.160Z,13.90
2022-10-22T23:54:26.999Z,14.90
2022-10-22T23:57:12.169Z,14.90
2022-10-22T23:59:57.741Z,13.50
